sensor_id;sensor_type;location;lat;lon;timestamp;P1;durP1;ratioP1;P2;durP2;ratioP2
63953;SDS011;50128;52.094;5.232;2023-01-01T00:00:30;28.0;;;21.9;;
63953;SDS011;50128;52.094;5.232;2023-01-01T00:03:46;31.0;;;21.5;;
63953;SDS011;50128;52.094;5.232;2023-01-01T00:05:24;25.3;;;17.2;;
63953;SDS011;50128;52.094;5.232;2023-01-01T00:07:00;23.5;;;17.0;;
63953;SDS011;50128;52.094;5.232;2023-01-01T00:10:15;32.4;;;23.0;;
63953;SDS011;50128;52.094;5.232;2023-01-01T00:11:51;70.0;;;53.6;;
63953;SDS011;50128;52.094;5.232;2023-01-01T00:13:27;31.0;;;25.1;;
63953;SDS011;50128;52.094;5.232;2023-01-01T00:16:42;22.3;;;15.6;;
63953;SDS011;50128;52.094;5.232;2023-01-01T00:18:19;26.8;;;20.3;;
63953;SDS011;50128;52.094;5.232;2023-01-01T00:19:56;31.7;;;25.6;;
63953;SDS011;50128;52.094;5.232;2023-01-01T00:21:34;39.1;;;29.6;;
63953;SDS011;50128;52.094;5.232;2023-01-01T00:24:46;34.81;;;24.5;;
63953;SDS011;50128;52.094;5.232;2023-01-01T00:26:22;30.9;;;19.7;;
63953;SDS011;50128;52.094;5.232;2023-01-01T00:27:59;30.9;;;23.7;;
63953;SDS011;50128;52.094;5.232;2023-01-01T00:31:12;45.3;;;36.1;;
63953;SDS011;50128;52.094;5.232;2023-01-01T00:32:51;30.6;;;23.5;;
63953;SDS011;50128;52.094;5.232;2023-01-01T00:34:27;31.9;;;22.9;;
63953;SDS011;50128;52.094;5.232;2023-01-01T00:36:05;33.9;;;26.7;;
63953;SDS011;50128;52.094;5.232;2023-01-01T00:39:20;23.8;;;18.7;;
63953;SDS011;50128;52.094;5.232;2023-01-01T00:40:56;23.4;;;14.3;;
63953;SDS011;50128;52.094;5.232;2023-01-01T00:42:32;19.8;;;13.3;;
63953;SDS011;50128;52.094;5.232;2023-01-01T00:45:45;17.41;;;13.0;;
63953;SDS011;50128;52.094;5.232;2023-01-01T00:47:21;26.0;;;18.11;;
63953;SDS011;50128;52.094;5.232;2023-01-01T00:48:58;21.3;;;12.4;;
63953;SDS011;50128;52.094;5.232;2023-01-01T00:52:11;16.5;;;10.5;;
63953;SDS011;50128;52.094;5.232;2023-01-01T00:53:47;17.0;;;9.0;;
63953;SDS011;50128;52.094;5.232;2023-01-01T00:55:23;16.2;;;10.3;;
63953;SDS011;50128;52.094;5.232;2023-01-01T00:57:00;18.41;;;11.4;;
63953;SDS011;50128;52.094;5.232;2023-01-01T01:00:13;16.2;;;8.71;;
63953;SDS011;50128;52.094;5.232;2023-01-01T01:03:26;17.41;;;10.5;;
63953;SDS011;50128;52.094;5.232;2023-01-01T01:06:41;17.8;;;9.4;;
63953;SDS011;50128;52.094;5.232;2023-01-01T01:08:18;17.3;;;7.8;;
63953;SDS011;50128;52.094;5.232;2023-01-01T01:09:56;17.7;;;7.5;;
63953;SDS011;50128;52.094;5.232;2023-01-01T01:13:08;13.8;;;6.7;;
63953;SDS011;50128;52.094;5.232;2023-01-01T01:14:44;14.9;;;7.0;;
63953;SDS011;50128;52.094;5.232;2023-01-01T01:16:23;15.1;;;6.4;;
63953;SDS011;50128;52.094;5.232;2023-01-01T01:18:00;13.1;;;6.5;;
63953;SDS011;50128;52.094;5.232;2023-01-01T01:21:14;15.2;;;6.8;;
63953;SDS011;50128;52.094;5.232;2023-01-01T01:22:52;14.1;;;6.1;;
63953;SDS011;50128;52.094;5.232;2023-01-01T01:24:28;13.7;;;5.7;;
63953;SDS011;50128;52.094;5.232;2023-01-01T01:27:44;11.9;;;5.4;;
63953;SDS011;50128;52.094;5.232;2023-01-01T01:29:20;13.1;;;5.4;;
63953;SDS011;50128;52.094;5.232;2023-01-01T01:30:58;13.7;;;6.5;;
63953;SDS011;50128;52.094;5.232;2023-01-01T01:32:35;12.6;;;6.0;;
63953;SDS011;50128;52.094;5.232;2023-01-01T01:35:49;11.7;;;4.7;;
63953;SDS011;50128;52.094;5.232;2023-01-01T01:37:25;14.6;;;5.3;;
63953;SDS011;50128;52.094;5.232;2023-01-01T01:39:01;10.21;;;4.61;;
63953;SDS011;50128;52.094;5.232;2023-01-01T01:42:17;12.1;;;4.91;;
63953;SDS011;50128;52.094;5.232;2023-01-01T01:43:56;12.1;;;5.2;;
63953;SDS011;50128;52.094;5.232;2023-01-01T01:45:35;11.2;;;4.61;;
63953;SDS011;50128;52.094;5.232;2023-01-01T01:47:13;10.21;;;4.2;;
63953;SDS011;50128;52.094;5.232;2023-01-01T01:50:31;10.9;;;4.41;;
63953;SDS011;50128;52.094;5.232;2023-01-01T01:52:12;11.5;;;4.5;;
63953;SDS011;50128;52.094;5.232;2023-01-01T01:53:50;10.3;;;5.0;;
63953;SDS011;50128;52.094;5.232;2023-01-01T01:55:34;11.1;;;4.3;;
63953;SDS011;50128;52.094;5.232;2023-01-01T01:58:51;9.4;;;4.3;;
63953;SDS011;50128;52.094;5.232;2023-01-01T02:00:27;10.1;;;4.0;;
63953;SDS011;50128;52.094;5.232;2023-01-01T02:02:04;10.9;;;4.1;;
63953;SDS011;50128;52.094;5.232;2023-01-01T02:03:56;12.3;;;4.41;;
63953;SDS011;50128;52.094;5.232;2023-01-01T02:07:11;7.8;;;3.7;;
63953;SDS011;50128;52.094;5.232;2023-01-01T02:08:49;10.7;;;4.1;;
63953;SDS011;50128;52.094;5.232;2023-01-01T02:10:27;9.71;;;3.9;;
63953;SDS011;50128;52.094;5.232;2023-01-01T02:13:41;10.21;;;4.2;;
63953;SDS011;50128;52.094;5.232;2023-01-01T02:15:18;9.6;;;3.8;;
63953;SDS011;50128;52.094;5.232;2023-01-01T02:16:59;11.2;;;4.61;;
63953;SDS011;50128;52.094;5.232;2023-01-01T02:18:49;11.2;;;4.61;;
63953;SDS011;50128;52.094;5.232;2023-01-01T02:22:22;9.1;;;4.5;;
63953;SDS011;50128;52.094;5.232;2023-01-01T02:24:13;9.1;;;4.2;;
63953;SDS011;50128;52.094;5.232;2023-01-01T02:26:51;11.3;;;4.2;;
63953;SDS011;50128;52.094;5.232;2023-01-01T02:28:38;8.0;;;3.7;;
63953;SDS011;50128;52.094;5.232;2023-01-01T02:30:26;10.4;;;3.6;;
63953;SDS011;50128;52.094;5.232;2023-01-01T02:32:07;10.6;;;4.41;;
63953;SDS011;50128;52.094;5.232;2023-01-01T02:33:46;10.4;;;4.2;;
63953;SDS011;50128;52.094;5.232;2023-01-01T02:35:28;9.21;;;4.1;;
63953;SDS011;50128;52.094;5.232;2023-01-01T02:38:51;11.0;;;5.3;;
63953;SDS011;50128;52.094;5.232;2023-01-01T02:40:31;8.4;;;4.2;;
63953;SDS011;50128;52.094;5.232;2023-01-01T02:42:11;12.3;;;7.2;;
63953;SDS011;50128;52.094;5.232;2023-01-01T02:43:48;13.7;;;10.3;;
63953;SDS011;50128;52.094;5.232;2023-01-01T02:47:05;9.31;;;3.9;;
63953;SDS011;50128;52.094;5.232;2023-01-01T02:48:45;9.81;;;3.3;;
63953;SDS011;50128;52.094;5.232;2023-01-01T02:50:24;10.7;;;3.3;;
63953;SDS011;50128;52.094;5.232;2023-01-01T02:52:04;8.71;;;3.0;;
63953;SDS011;50128;52.094;5.232;2023-01-01T02:55:35;9.21;;;2.8;;
63953;SDS011;50128;52.094;5.232;2023-01-01T02:57:25;7.6;;;3.0;;
63953;SDS011;50128;52.094;5.232;2023-01-01T02:59:13;11.6;;;4.8;;
63953;SDS011;50128;52.094;5.232;2023-01-01T03:00:56;11.3;;;4.41;;
63953;SDS011;50128;52.094;5.232;2023-01-01T03:02:47;10.21;;;4.1;;
63953;SDS011;50128;52.094;5.232;2023-01-01T03:04:53;9.5;;;4.0;;
63953;SDS011;50128;52.094;5.232;2023-01-01T06:46:01;8.31;;;1.7;;
63953;SDS011;50128;52.094;5.232;2023-01-01T06:47:51;7.7;;;1.8;;
63953;SDS011;50128;52.094;5.232;2023-01-01T06:49:27;5.7;;;1.5;;
63953;SDS011;50128;52.094;5.232;2023-01-01T06:51:05;6.0;;;1.6;;
63953;SDS011;50128;52.094;5.232;2023-01-01T06:52:43;5.8;;;1.5;;
63953;SDS011;50128;52.094;5.232;2023-01-01T06:55:57;5.7;;;1.6;;
63953;SDS011;50128;52.094;5.232;2023-01-01T06:57:34;5.5;;;1.4;;
63953;SDS011;50128;52.094;5.232;2023-01-01T06:59:10;5.11;;;1.2;;
63953;SDS011;50128;52.094;5.232;2023-01-01T07:02:23;5.6;;;1.5;;
63953;SDS011;50128;52.094;5.232;2023-01-01T07:03:59;6.8;;;1.4;;
63953;SDS011;50128;52.094;5.232;2023-01-01T07:05:38;7.5;;;1.7;;
63953;SDS011;50128;52.094;5.232;2023-01-01T07:07:14;4.91;;;1.4;;
63953;SDS011;50128;52.094;5.232;2023-01-01T07:10:26;6.5;;;1.4;;
63953;SDS011;50128;52.094;5.232;2023-01-01T07:12:03;6.4;;;1.6;;
63953;SDS011;50128;52.094;5.232;2023-01-01T07:13:40;6.2;;;1.5;;
63953;SDS011;50128;52.094;5.232;2023-01-01T07:16:52;6.0;;;1.8;;
63953;SDS011;50128;52.094;5.232;2023-01-01T07:18:28;5.3;;;1.7;;
63953;SDS011;50128;52.094;5.232;2023-01-01T07:20:05;6.3;;;1.3;;
63953;SDS011;50128;52.094;5.232;2023-01-01T07:23:20;8.71;;;1.8;;
63953;SDS011;50128;52.094;5.232;2023-01-01T07:24:56;7.2;;;1.5;;
63953;SDS011;50128;52.094;5.232;2023-01-01T07:26:32;7.7;;;1.8;;
63953;SDS011;50128;52.094;5.232;2023-01-01T07:28:08;5.6;;;1.5;;
63953;SDS011;50128;52.094;5.232;2023-01-01T07:31:21;7.1;;;1.8;;
63953;SDS011;50128;52.094;5.232;2023-01-01T07:32:57;6.9;;;1.6;;
63953;SDS011;50128;52.094;5.232;2023-01-01T07:34:32;7.7;;;1.7;;
63953;SDS011;50128;52.094;5.232;2023-01-01T07:37:45;6.5;;;1.4;;
63953;SDS011;50128;52.094;5.232;2023-01-01T07:39:21;9.81;;;1.9;;
63953;SDS011;50128;52.094;5.232;2023-01-01T07:40:57;9.4;;;1.9;;
63953;SDS011;50128;52.094;5.232;2023-01-01T07:44:10;8.31;;;1.9;;
63953;SDS011;50128;52.094;5.232;2023-01-01T07:45:46;7.3;;;1.7;;
63953;SDS011;50128;52.094;5.232;2023-01-01T07:47:23;7.5;;;1.7;;
63953;SDS011;50128;52.094;5.232;2023-01-01T07:50:36;9.21;;;1.8;;
63953;SDS011;50128;52.094;5.232;2023-01-01T07:52:12;7.8;;;2.1;;
63953;SDS011;50128;52.094;5.232;2023-01-01T07:53:48;8.31;;;1.9;;
63953;SDS011;50128;52.094;5.232;2023-01-01T07:55:24;7.9;;;1.8;;
63953;SDS011;50128;52.094;5.232;2023-01-01T07:58:38;9.21;;;2.0;;
63953;SDS011;50128;52.094;5.232;2023-01-01T08:00:16;6.9;;;1.7;;
63953;SDS011;50128;52.094;5.232;2023-01-01T08:01:54;7.9;;;1.7;;
63953;SDS011;50128;52.094;5.232;2023-01-01T08:05:07;8.2;;;1.8;;
63953;SDS011;50128;52.094;5.232;2023-01-01T08:06:43;6.6;;;1.8;;
63953;SDS011;50128;52.094;5.232;2023-01-01T08:08:19;6.9;;;1.8;;
63953;SDS011;50128;52.094;5.232;2023-01-01T08:11:32;7.8;;;2.1;;
63953;SDS011;50128;52.094;5.232;2023-01-01T08:13:08;8.0;;;1.8;;
63953;SDS011;50128;52.094;5.232;2023-01-01T08:14:44;7.4;;;1.7;;
63953;SDS011;50128;52.094;5.232;2023-01-01T08:16:21;8.0;;;2.31;;
63953;SDS011;50128;52.094;5.232;2023-01-01T08:19:34;7.4;;;1.8;;
63953;SDS011;50128;52.094;5.232;2023-01-01T08:21:10;6.1;;;1.8;;
63953;SDS011;50128;52.094;5.232;2023-01-01T08:22:46;7.6;;;1.9;;
63953;SDS011;50128;52.094;5.232;2023-01-01T08:25:59;7.5;;;1.6;;
63953;SDS011;50128;52.094;5.232;2023-01-01T08:27:37;8.6;;;1.8;;
63953;SDS011;50128;52.094;5.232;2023-01-01T08:29:13;8.5;;;2.0;;
63953;SDS011;50128;52.094;5.232;2023-01-01T08:32:25;9.0;;;1.8;;
63953;SDS011;50128;52.094;5.232;2023-01-01T08:34:01;6.5;;;1.7;;
63953;SDS011;50128;52.094;5.232;2023-01-01T08:35:39;8.0;;;2.1;;
63953;SDS011;50128;52.094;5.232;2023-01-01T08:37:17;8.5;;;1.9;;
63953;SDS011;50128;52.094;5.232;2023-01-01T08:40:33;8.5;;;1.9;;
63953;SDS011;50128;52.094;5.232;2023-01-01T08:42:09;8.5;;;2.0;;
63953;SDS011;50128;52.094;5.232;2023-01-01T08:43:45;8.0;;;1.8;;
63953;SDS011;50128;52.094;5.232;2023-01-01T08:46:58;9.81;;;1.9;;
63953;SDS011;50128;52.094;5.232;2023-01-01T08:48:34;8.4;;;1.9;;
63953;SDS011;50128;52.094;5.232;2023-01-01T08:50:10;8.0;;;1.9;;
63953;SDS011;50128;52.094;5.232;2023-01-01T08:53:22;8.81;;;2.31;;
63953;SDS011;50128;52.094;5.232;2023-01-01T08:54:58;8.6;;;2.0;;
63953;SDS011;50128;52.094;5.232;2023-01-01T08:56:34;8.9;;;2.21;;
63953;SDS011;50128;52.094;5.232;2023-01-01T08:58:11;9.5;;;2.1;;
63953;SDS011;50128;52.094;5.232;2023-01-01T09:01:25;10.4;;;2.0;;
63953;SDS011;50128;52.094;5.232;2023-01-01T09:03:02;8.5;;;2.21;;
63953;SDS011;50128;52.094;5.232;2023-01-01T09:07:50;9.1;;;2.1;;
63953;SDS011;50128;52.094;5.232;2023-01-01T09:09:27;7.5;;;1.9;;
63953;SDS011;50128;52.094;5.232;2023-01-01T09:11:04;8.81;;;1.9;;
63953;SDS011;50128;52.094;5.232;2023-01-01T09:14:17;8.4;;;1.9;;
63953;SDS011;50128;52.094;5.232;2023-01-01T09:15:54;8.81;;;2.21;;
63953;SDS011;50128;52.094;5.232;2023-01-01T09:17:31;6.5;;;1.7;;
63953;SDS011;50128;52.094;5.232;2023-01-01T09:19:07;8.31;;;2.1;;
63953;SDS011;50128;52.094;5.232;2023-01-01T09:22:20;9.6;;;2.21;;
63953;SDS011;50128;52.094;5.232;2023-01-01T09:23:56;7.2;;;2.31;;
63953;SDS011;50128;52.094;5.232;2023-01-01T09:25:32;8.31;;;2.31;;
63953;SDS011;50128;52.094;5.232;2023-01-01T09:28:45;7.2;;;2.1;;
63953;SDS011;50128;52.094;5.232;2023-01-01T09:30:21;10.5;;;2.4;;
63953;SDS011;50128;52.094;5.232;2023-01-01T09:31:57;9.31;;;2.31;;
63953;SDS011;50128;52.094;5.232;2023-01-01T09:35:11;7.7;;;2.21;;
63953;SDS011;50128;52.094;5.232;2023-01-01T09:36:47;8.81;;;2.31;;
63953;SDS011;50128;52.094;5.232;2023-01-01T09:38:23;9.71;;;2.6;;
63953;SDS011;50128;52.094;5.232;2023-01-01T09:39:59;10.4;;;2.5;;
63953;SDS011;50128;52.094;5.232;2023-01-01T09:43:41;8.81;;;2.5;;
63953;SDS011;50128;52.094;5.232;2023-01-01T09:45:29;8.31;;;2.7;;
63953;SDS011;50128;52.094;5.232;2023-01-01T09:47:13;9.1;;;2.7;;
63953;SDS011;50128;52.094;5.232;2023-01-01T09:49:00;8.5;;;2.6;;
63953;SDS011;50128;52.094;5.232;2023-01-01T09:52:22;9.21;;;2.4;;
63953;SDS011;50128;52.094;5.232;2023-01-01T09:54:05;11.0;;;2.31;;
63953;SDS011;50128;52.094;5.232;2023-01-01T09:55:52;8.81;;;2.21;;
63953;SDS011;50128;52.094;5.232;2023-01-01T09:57:31;7.9;;;2.21;;
63953;SDS011;50128;52.094;5.232;2023-01-01T09:59:07;9.5;;;2.4;;
63953;SDS011;50128;52.094;5.232;2023-01-01T10:02:31;8.1;;;2.31;;
63953;SDS011;50128;52.094;5.232;2023-01-01T10:04:24;7.3;;;2.1;;
63953;SDS011;50128;52.094;5.232;2023-01-01T10:06:22;7.9;;;2.1;;
63953;SDS011;50128;52.094;5.232;2023-01-01T10:08:04;11.7;;;2.5;;
63953;SDS011;50128;52.094;5.232;2023-01-01T10:09:54;11.0;;;2.6;;
63953;SDS011;50128;52.094;5.232;2023-01-01T10:11:40;9.21;;;2.4;;
63953;SDS011;50128;52.094;5.232;2023-01-01T10:13:27;9.5;;;2.31;;
63953;SDS011;50128;52.094;5.232;2023-01-01T10:16:54;6.6;;;2.1;;
63953;SDS011;50128;52.094;5.232;2023-01-01T10:18:34;9.81;;;2.4;;
63953;SDS011;50128;52.094;5.232;2023-01-01T10:20:14;10.1;;;2.31;;
63953;SDS011;50128;52.094;5.232;2023-01-01T10:21:56;8.81;;;2.6;;
63953;SDS011;50128;52.094;5.232;2023-01-01T10:25:22;9.21;;;2.21;;
63953;SDS011;50128;52.094;5.232;2023-01-01T10:27:02;8.5;;;2.0;;
63953;SDS011;50128;52.094;5.232;2023-01-01T10:28:42;10.3;;;2.5;;
63953;SDS011;50128;52.094;5.232;2023-01-01T10:30:27;10.5;;;2.8;;
63953;SDS011;50128;52.094;5.232;2023-01-01T10:33:54;9.71;;;3.0;;
63953;SDS011;50128;52.094;5.232;2023-01-01T10:35:31;8.9;;;2.7;;
63953;SDS011;50128;52.094;5.232;2023-01-01T10:37:10;11.1;;;2.7;;
63953;SDS011;50128;52.094;5.232;2023-01-01T10:38:48;9.9;;;2.31;;
63953;SDS011;50128;52.094;5.232;2023-01-01T10:42:05;9.0;;;2.4;;
63953;SDS011;50128;52.094;5.232;2023-01-01T10:43:41;10.4;;;2.8;;
63953;SDS011;50128;52.094;5.232;2023-01-01T10:45:17;10.9;;;3.0;;
63953;SDS011;50128;52.094;5.232;2023-01-01T10:47:03;11.7;;;2.9;;
63953;SDS011;50128;52.094;5.232;2023-01-01T10:49:02;9.9;;;2.7;;
63953;SDS011;50128;52.094;5.232;2023-01-01T10:52:24;10.9;;;3.2;;
63953;SDS011;50128;52.094;5.232;2023-01-01T10:54:04;11.3;;;3.1;;
63953;SDS011;50128;52.094;5.232;2023-01-01T10:55:40;10.5;;;3.4;;
63953;SDS011;50128;52.094;5.232;2023-01-01T10:59:30;11.5;;;2.8;;
63953;SDS011;50128;52.094;5.232;2023-01-01T11:01:10;12.0;;;3.4;;
63953;SDS011;50128;52.094;5.232;2023-01-01T11:03:10;13.2;;;3.2;;
63953;SDS011;50128;52.094;5.232;2023-01-01T11:05:10;11.8;;;3.8;;
63953;SDS011;50128;52.094;5.232;2023-01-01T11:06:51;12.1;;;3.1;;
63953;SDS011;50128;52.094;5.232;2023-01-01T11:08:27;9.6;;;2.8;;
63953;SDS011;50128;52.094;5.232;2023-01-01T11:10:05;9.31;;;3.0;;
63953;SDS011;50128;52.094;5.232;2023-01-01T11:13:32;9.9;;;2.6;;
63953;SDS011;50128;52.094;5.232;2023-01-01T11:15:18;12.4;;;3.0;;
63953;SDS011;50128;52.094;5.232;2023-01-01T11:16:56;10.1;;;3.2;;
63953;SDS011;50128;52.094;5.232;2023-01-01T11:18:33;10.8;;;3.0;;
63953;SDS011;50128;52.094;5.232;2023-01-01T11:21:54;8.9;;;2.5;;
63953;SDS011;50128;52.094;5.232;2023-01-01T11:23:32;12.4;;;2.6;;
63953;SDS011;50128;52.094;5.232;2023-01-01T11:25:16;9.6;;;2.9;;
63953;SDS011;50128;52.094;5.232;2023-01-01T11:27:10;12.4;;;3.1;;
63953;SDS011;50128;52.094;5.232;2023-01-01T11:29:00;8.5;;;2.7;;
63953;SDS011;50128;52.094;5.232;2023-01-01T11:32:33;9.5;;;2.8;;
63953;SDS011;50128;52.094;5.232;2023-01-01T11:34:15;11.1;;;3.3;;
63953;SDS011;50128;52.094;5.232;2023-01-01T11:36:02;11.2;;;3.4;;
63953;SDS011;50128;52.094;5.232;2023-01-01T11:37:40;10.0;;;2.8;;
63953;SDS011;50128;52.094;5.232;2023-01-01T11:39:20;13.4;;;3.6;;
63953;SDS011;50128;52.094;5.232;2023-01-01T11:42:42;10.6;;;3.4;;
63953;SDS011;50128;52.094;5.232;2023-01-01T11:44:24;9.4;;;3.2;;
63953;SDS011;50128;52.094;5.232;2023-01-01T11:46:08;9.81;;;3.2;;
63953;SDS011;50128;52.094;5.232;2023-01-01T11:47:52;10.1;;;3.2;;
63953;SDS011;50128;52.094;5.232;2023-01-01T11:51:11;10.21;;;3.1;;
63953;SDS011;50128;52.094;5.232;2023-01-01T11:53:16;12.0;;;3.3;;
63953;SDS011;50128;52.094;5.232;2023-01-01T11:55:10;9.6;;;3.1;;
63953;SDS011;50128;52.094;5.232;2023-01-01T11:56:56;10.21;;;3.0;;
63953;SDS011;50128;52.094;5.232;2023-01-01T11:58:43;8.6;;;2.7;;
63953;SDS011;50128;52.094;5.232;2023-01-01T12:00:27;10.1;;;3.2;;
63953;SDS011;50128;52.094;5.232;2023-01-01T12:03:50;9.4;;;3.0;;
63953;SDS011;50128;52.094;5.232;2023-01-01T12:05:35;10.21;;;3.3;;
63953;SDS011;50128;52.094;5.232;2023-01-01T12:07:20;12.8;;;3.9;;
63953;SDS011;50128;52.094;5.232;2023-01-01T12:09:04;11.4;;;3.6;;
63953;SDS011;50128;52.094;5.232;2023-01-01T12:10:48;9.9;;;3.0;;
63953;SDS011;50128;52.094;5.232;2023-01-01T12:14:12;10.1;;;3.2;;
63953;SDS011;50128;52.094;5.232;2023-01-01T12:15:57;10.5;;;3.4;;
63953;SDS011;50128;52.094;5.232;2023-01-01T12:17:42;10.4;;;3.4;;
63953;SDS011;50128;52.094;5.232;2023-01-01T12:19:22;12.9;;;3.4;;
63953;SDS011;50128;52.094;5.232;2023-01-01T12:21:04;10.4;;;3.3;;
63953;SDS011;50128;52.094;5.232;2023-01-01T12:24:27;10.5;;;3.5;;
63953;SDS011;50128;52.094;5.232;2023-01-01T12:26:10;10.9;;;3.6;;
63953;SDS011;50128;52.094;5.232;2023-01-01T12:27:57;9.81;;;3.5;;
63953;SDS011;50128;52.094;5.232;2023-01-01T12:29:49;10.5;;;3.2;;
63953;SDS011;50128;52.094;5.232;2023-01-01T12:31:47;12.6;;;3.5;;
63953;SDS011;50128;52.094;5.232;2023-01-01T12:33:40;11.5;;;3.7;;
63953;SDS011;50128;52.094;5.232;2023-01-01T12:35:53;8.9;;;3.1;;
63953;SDS011;50128;52.094;5.232;2023-01-01T12:42:32;10.7;;;3.3;;
63953;SDS011;50128;52.094;5.232;2023-01-01T12:44:22;10.3;;;3.7;;
63953;SDS011;50128;52.094;5.232;2023-01-01T12:46:14;12.4;;;3.8;;
63953;SDS011;50128;52.094;5.232;2023-01-01T12:50:20;11.7;;;3.2;;
63953;SDS011;50128;52.094;5.232;2023-01-01T12:54:31;11.7;;;3.3;;
63953;SDS011;50128;52.094;5.232;2023-01-01T12:56:22;10.8;;;3.3;;
63953;SDS011;50128;52.094;5.232;2023-01-01T12:58:08;12.6;;;3.4;;
63953;SDS011;50128;52.094;5.232;2023-01-01T12:59:48;12.8;;;3.6;;
63953;SDS011;50128;52.094;5.232;2023-01-01T13:01:28;12.5;;;3.3;;
63953;SDS011;50128;52.094;5.232;2023-01-01T13:03:09;12.9;;;4.1;;
63953;SDS011;50128;52.094;5.232;2023-01-01T13:06:39;16.0;;;3.9;;
63953;SDS011;50128;52.094;5.232;2023-01-01T13:08:21;10.5;;;4.0;;
63953;SDS011;50128;52.094;5.232;2023-01-01T13:11:54;13.5;;;3.4;;
63953;SDS011;50128;52.094;5.232;2023-01-01T13:13:34;11.0;;;2.9;;
63953;SDS011;50128;52.094;5.232;2023-01-01T13:17:24;13.8;;;4.3;;
63953;SDS011;50128;52.094;5.232;2023-01-01T13:19:04;12.4;;;3.5;;
63953;SDS011;50128;52.094;5.232;2023-01-01T13:20:41;12.0;;;3.3;;
63953;SDS011;50128;52.094;5.232;2023-01-01T13:24:18;12.2;;;3.2;;
63953;SDS011;50128;52.094;5.232;2023-01-01T13:26:29;11.4;;;3.2;;
63953;SDS011;50128;52.094;5.232;2023-01-01T13:28:11;10.8;;;3.2;;
63953;SDS011;50128;52.094;5.232;2023-01-01T13:31:30;11.1;;;3.2;;
63953;SDS011;50128;52.094;5.232;2023-01-01T13:33:37;14.8;;;3.8;;
63953;SDS011;50128;52.094;5.232;2023-01-01T13:35:14;13.0;;;3.5;;
63953;SDS011;50128;52.094;5.232;2023-01-01T13:36:51;12.6;;;3.4;;
63953;SDS011;50128;52.094;5.232;2023-01-01T13:39:49;12.6;;;2.9;;
63953;SDS011;50128;52.094;5.232;2023-01-01T13:41:27;11.1;;;2.9;;
63953;SDS011;50128;52.094;5.232;2023-01-01T13:43:15;12.3;;;3.5;;
63953;SDS011;50128;52.094;5.232;2023-01-01T13:45:12;15.6;;;3.7;;
63953;SDS011;50128;52.094;5.232;2023-01-01T13:47:03;11.0;;;3.3;;
63953;SDS011;50128;52.094;5.232;2023-01-01T13:49:00;11.9;;;3.7;;
63953;SDS011;50128;52.094;5.232;2023-01-01T13:51:01;13.2;;;3.5;;
63953;SDS011;50128;52.094;5.232;2023-01-01T13:57:48;12.7;;;3.8;;
63953;SDS011;50128;52.094;5.232;2023-01-01T14:00:13;13.7;;;3.5;;
63953;SDS011;50128;52.094;5.232;2023-01-01T14:01:57;13.7;;;4.0;;
63953;SDS011;50128;52.094;5.232;2023-01-01T14:03:48;12.5;;;4.1;;
63953;SDS011;50128;52.094;5.232;2023-01-01T14:07:14;13.4;;;3.5;;
63953;SDS011;50128;52.094;5.232;2023-01-01T14:09:00;12.1;;;3.8;;
63953;SDS011;50128;52.094;5.232;2023-01-01T14:10:39;12.9;;;3.6;;
63953;SDS011;50128;52.094;5.232;2023-01-01T14:12:24;13.8;;;3.4;;
63953;SDS011;50128;52.094;5.232;2023-01-01T14:14:01;13.2;;;3.9;;
63953;SDS011;50128;52.094;5.232;2023-01-01T14:17:15;12.8;;;3.4;;
63953;SDS011;50128;52.094;5.232;2023-01-01T14:18:52;13.1;;;3.7;;
63953;SDS011;50128;52.094;5.232;2023-01-01T14:20:33;13.0;;;3.5;;
63953;SDS011;50128;52.094;5.232;2023-01-01T14:23:53;12.5;;;3.6;;
63953;SDS011;50128;52.094;5.232;2023-01-01T14:25:31;12.8;;;4.1;;
63953;SDS011;50128;52.094;5.232;2023-01-01T14:27:12;13.1;;;4.2;;
63953;SDS011;50128;52.094;5.232;2023-01-01T14:28:53;13.3;;;4.2;;
63953;SDS011;50128;52.094;5.232;2023-01-01T14:32:11;12.2;;;4.0;;
63953;SDS011;50128;52.094;5.232;2023-01-01T14:33:49;13.2;;;3.6;;
63953;SDS011;50128;52.094;5.232;2023-01-01T14:35:27;10.5;;;3.5;;
63953;SDS011;50128;52.094;5.232;2023-01-01T14:37:05;10.5;;;3.7;;
63953;SDS011;50128;52.094;5.232;2023-01-01T14:40:34;13.1;;;4.2;;
63953;SDS011;50128;52.094;5.232;2023-01-01T14:42:12;10.4;;;3.8;;
63953;SDS011;50128;52.094;5.232;2023-01-01T14:43:52;12.4;;;3.9;;
63953;SDS011;50128;52.094;5.232;2023-01-01T14:45:33;12.7;;;3.7;;
63953;SDS011;50128;52.094;5.232;2023-01-01T14:49:02;10.5;;;3.3;;
63953;SDS011;50128;52.094;5.232;2023-01-01T14:50:45;10.8;;;3.3;;
63953;SDS011;50128;52.094;5.232;2023-01-01T14:52:25;13.4;;;4.8;;
63953;SDS011;50128;52.094;5.232;2023-01-01T14:54:04;12.5;;;4.1;;
63953;SDS011;50128;52.094;5.232;2023-01-01T14:57:19;9.1;;;3.8;;
63953;SDS011;50128;52.094;5.232;2023-01-01T14:59:09;11.3;;;3.8;;
63953;SDS011;50128;52.094;5.232;2023-01-01T15:00:51;11.2;;;4.0;;
63953;SDS011;50128;52.094;5.232;2023-01-01T15:02:28;14.5;;;5.11;;
63953;SDS011;50128;52.094;5.232;2023-01-01T15:05:56;12.3;;;5.11;;
63953;SDS011;50128;52.094;5.232;2023-01-01T15:07:35;13.9;;;5.3;;
63953;SDS011;50128;52.094;5.232;2023-01-01T15:09:12;11.9;;;4.5;;
63953;SDS011;50128;52.094;5.232;2023-01-01T15:10:51;15.9;;;5.2;;
63953;SDS011;50128;52.094;5.232;2023-01-01T15:14:26;12.9;;;4.61;;
63953;SDS011;50128;52.094;5.232;2023-01-01T15:16:21;13.4;;;4.91;;
63953;SDS011;50128;52.094;5.232;2023-01-01T15:17:58;15.1;;;5.5;;
63953;SDS011;50128;52.094;5.232;2023-01-01T15:19:34;15.7;;;6.2;;
63953;SDS011;50128;52.094;5.232;2023-01-01T15:21:13;13.8;;;4.91;;
63953;SDS011;50128;52.094;5.232;2023-01-01T15:24:35;15.2;;;4.7;;
63953;SDS011;50128;52.094;5.232;2023-01-01T15:26:13;12.7;;;4.41;;
63953;SDS011;50128;52.094;5.232;2023-01-01T15:28:01;13.1;;;4.5;;
63953;SDS011;50128;52.094;5.232;2023-01-01T15:29:38;14.7;;;5.4;;
63953;SDS011;50128;52.094;5.232;2023-01-01T15:33:04;13.1;;;4.41;;
63953;SDS011;50128;52.094;5.232;2023-01-01T15:34:42;12.7;;;4.61;;
63953;SDS011;50128;52.094;5.232;2023-01-01T15:36:23;13.2;;;5.0;;
63953;SDS011;50128;52.094;5.232;2023-01-01T15:38:00;11.4;;;4.61;;
63953;SDS011;50128;52.094;5.232;2023-01-01T15:39:45;11.2;;;4.5;;
63953;SDS011;50128;52.094;5.232;2023-01-01T15:43:18;14.1;;;5.2;;
63953;SDS011;50128;52.094;5.232;2023-01-01T15:45:07;13.4;;;4.91;;
63953;SDS011;50128;52.094;5.232;2023-01-01T15:47:02;12.7;;;5.11;;
63953;SDS011;50128;52.094;5.232;2023-01-01T15:48:47;12.2;;;4.5;;
63953;SDS011;50128;52.094;5.232;2023-01-01T15:50:26;12.1;;;4.91;;
63953;SDS011;50128;52.094;5.232;2023-01-01T15:53:55;13.3;;;4.41;;
63953;SDS011;50128;52.094;5.232;2023-01-01T15:55:34;13.0;;;5.0;;
63953;SDS011;50128;52.094;5.232;2023-01-01T15:57:18;14.7;;;5.4;;
63953;SDS011;50128;52.094;5.232;2023-01-01T15:58:59;15.2;;;5.6;;
63953;SDS011;50128;52.094;5.232;2023-01-01T16:02:16;12.5;;;4.7;;
63953;SDS011;50128;52.094;5.232;2023-01-01T16:04:00;12.2;;;4.8;;
63953;SDS011;50128;52.094;5.232;2023-01-01T16:05:44;12.3;;;5.4;;
63953;SDS011;50128;52.094;5.232;2023-01-01T16:07:23;12.0;;;4.61;;
63953;SDS011;50128;52.094;5.232;2023-01-01T16:09:01;11.9;;;4.8;;
63953;SDS011;50128;52.094;5.232;2023-01-01T16:13:50;13.1;;;5.11;;
63953;SDS011;50128;52.094;5.232;2023-01-01T16:15:27;14.2;;;5.2;;
63953;SDS011;50128;52.094;5.232;2023-01-01T16:18:40;12.5;;;4.8;;
63953;SDS011;50128;52.094;5.232;2023-01-01T16:20:18;13.2;;;5.5;;
63953;SDS011;50128;52.094;5.232;2023-01-01T16:21:55;13.2;;;5.5;;
63953;SDS011;50128;52.094;5.232;2023-01-01T16:25:11;14.0;;;5.8;;
63953;SDS011;50128;52.094;5.232;2023-01-01T16:26:49;14.6;;;5.2;;
63953;SDS011;50128;52.094;5.232;2023-01-01T16:28:26;11.0;;;5.11;;
63953;SDS011;50128;52.094;5.232;2023-01-01T16:30:02;14.1;;;5.7;;
63953;SDS011;50128;52.094;5.232;2023-01-01T16:33:17;13.7;;;5.5;;
63953;SDS011;50128;52.094;5.232;2023-01-01T16:34:55;12.4;;;5.5;;
63953;SDS011;50128;52.094;5.232;2023-01-01T16:36:32;13.0;;;6.1;;
63953;SDS011;50128;52.094;5.232;2023-01-01T16:39:45;10.8;;;5.0;;
63953;SDS011;50128;52.094;5.232;2023-01-01T16:41:21;12.5;;;5.11;;
63953;SDS011;50128;52.094;5.232;2023-01-01T16:42:58;12.9;;;5.2;;
63953;SDS011;50128;52.094;5.232;2023-01-01T16:46:14;13.2;;;5.4;;
63953;SDS011;50128;52.094;5.232;2023-01-01T16:47:51;12.0;;;5.2;;